Time;durP1;ratioP1;P1;durP2;ratioP2;P2;SDS_P1;SDS_P2;PMS_P1;PMS_P2;Temp;Humidity;BMP_temperature;BMP_pressure;BME280_temperature;BME280_humidity;BME280_pressure;Samples;Min_cycle;Max_cycle;Signal;HPM_P1;HPM_P2
2022/05/09 00:00:29;;;;;;;5.45;2.90;;;;;;;;;;5027794;28;20028;-62
2022/05/09 00:02:55;;;;;;;7.45;2.85;;;;;;;;;;5022438;28;20040;-62
2022/05/09 00:05:22;;;;;;;6.80;3.03;;;;;;;;;;5027570;28;20089;-62
2022/05/09 00:07:49;;;;;;;9.77;3.40;;;;;;;;;;5027532;28;20025;-62
2022/05/09 00:10:17;;;;;;;5.93;2.97;;;;;;;;;;5026787;28;20029;-62
2022/05/09 00:12:43;;;;;;;9.57;3.22;;;;;;;;;;5026752;28;20067;-62
2022/05/09 00:15:09;;;;;;;5.45;3.13;;;;;;;;;;5026963;28;20029;-61
2022/05/09 00:17:35;;;;;;;6.93;3.20;;;;;;;;;;5025172;28;20532;-62
2022/05/09 00:20:01;;;;;;;5.72;3.00;;;;;;;;;;5021726;28;20063;-61
2022/05/09 00:22:28;;;;;;;10.93;3.38;;;;;;;;;;5024158;28;20018;-61
2022/05/09 00:24:54;;;;;;;9.52;3.38;;;;;;;;;;5026780;28;20118;-62
2022/05/09 00:27:20;;;;;;;6.22;3.17;;;;;;;;;;5023031;28;20773;-62
2022/05/09 00:29:46;;;;;;;7.60;2.90;;;;;;;;;;5025397;28;20036;-61
2022/05/09 00:32:12;;;;;;;6.47;3.13;;;;;;;;;;5024042;28;20025;-61
2022/05/09 00:34:38;;;;;;;9.18;4.18;;;;;;;;;;5027393;28;20103;-61
2022/05/09 00:37:05;;;;;;;11.32;5.13;;;;;;;;;;5024045;28;20449;-62
2022/05/09 00:39:33;;;;;;;12.40;4.65;;;;;;;;;;5025656;28;20029;-61
2022/05/09 00:42:13;;;;;;;12.10;3.70;;;;;;;;;;5025845;28;20120;-62
2022/05/09 00:44:39;;;;;;;9.63;4.35;;;;;;;;;;5026416;28;20033;-61
2022/05/09 00:47:05;;;;;;;8.60;3.95;;;;;;;;;;5026620;28;20032;-62
2022/05/09 00:49:31;;;;;;;8.70;3.90;;;;;;;;;;5026637;28;20029;-61
2022/05/09 00:52:00;;;;;;;7.65;3.58;;;;;;;;;;5026600;28;20026;-62
2022/05/09 00:54:28;;;;;;;6.07;3.55;;;;;;;;;;5027694;28;20102;-61
2022/05/09 00:57:02;;;;;;;6.35;3.33;;;;;;;;;;5023720;28;20056;-61
2022/05/09 00:59:29;;;;;;;10.80;3.65;;;;;;;;;;5023426;28;20366;-61
2022/05/09 01:01:55;;;;;;;10.30;3.60;;;;;;;;;;5020757;28;20030;-61
2022/05/09 01:04:24;;;;;;;7.97;3.40;;;;;;;;;;5023912;28;20370;-61
2022/05/09 01:06:53;;;;;;;8.43;3.80;;;;;;;;;;5026478;28;20980;-61
2022/05/09 01:09:19;;;;;;;10.27;4.28;;;;;;;;;;5026301;28;20030;-61
2022/05/09 01:11:47;;;;;;;8.20;3.45;;;;;;;;;;5025037;28;20033;-61
2022/05/09 01:14:18;;;;;;;8.73;3.88;;;;;;;;;;5025421;28;20025;-61
2022/05/09 01:16:46;;;;;;;10.45;4.05;;;;;;;;;;5023557;28;20402;-61
2022/05/09 01:19:19;;;;;;;8.02;3.70;;;;;;;;;;5025991;28;20017;-62
2022/05/09 01:21:45;;;;;;;6.63;3.50;;;;;;;;;;5026951;28;20802;-61
2022/05/09 01:24:16;;;;;;;9.55;3.97;;;;;;;;;;5021998;28;20017;-61
2022/05/09 01:26:42;;;;;;;9.43;4.25;;;;;;;;;;5025289;28;20515;-61
2022/05/09 01:29:16;;;;;;;10.43;4.35;;;;;;;;;;5024302;28;20029;-61
2022/05/09 01:31:42;;;;;;;;;;;;;;;;;;5024649;28;20103;-61
2022/05/09 01:34:09;;;;;;;10.18;4.20;;;;;;;;;;5024993;28;20297;-61
2022/05/09 01:36:36;;;;;;;7.05;3.90;;;;;;;;;;5025333;28;20112;-59
2022/05/09 01:39:03;;;;;;;11.00;4.20;;;;;;;;;;5024261;28;20025;-61
2022/05/09 01:41:35;;;;;;;6.47;3.80;;;;;;;;;;5024525;28;20036;-61
2022/05/09 01:44:01;;;;;;;6.07;3.85;;;;;;;;;;5024706;28;20051;-61
2022/05/09 01:46:29;;;;;;;7.28;3.80;;;;;;;;;;5028562;28;20041;-61
2022/05/09 01:51:47;;;;;;;8.70;3.92;;;;;;;;;;5031047;28;20052;-61
2022/05/09 01:54:14;;;;;;;10.27;4.40;;;;;;;;;;5025629;28;20053;-61
2022/05/09 01:56:41;;;;;;;8.30;4.00;;;;;;;;;;5027070;28;20026;-61
2022/05/09 01:59:08;;;;;;;11.32;4.30;;;;;;;;;;5023995;28;20036;-61
2022/05/09 02:01:36;;;;;;;8.15;3.85;;;;;;;;;;5020557;28;20423;-61
2022/05/09 02:04:02;;;;;;;10.88;4.60;;;;;;;;;;5018230;28;20057;-61
2022/05/09 02:06:28;;;;;;;9.65;4.38;;;;;;;;;;5023359;28;20057;-61
2022/05/09 02:08:54;;;;;;;9.85;3.80;;;;;;;;;;5023406;28;20029;-61
2022/05/09 02:11:20;;;;;;;8.70;4.07;;;;;;;;;;5025710;28;20040;-61
2022/05/09 02:13:46;;;;;;;12.80;4.15;;;;;;;;;;5024405;28;20048;-61
2022/05/09 02:16:12;;;;;;;7.22;4.00;;;;;;;;;;5024915;28;20030;-61
2022/05/09 02:18:38;;;;;;;8.13;4.13;;;;;;;;;;5022879;28;20037;-60
2022/05/09 02:21:05;;;;;;;11.15;4.30;;;;;;;;;;5015780;28;20104;-60
2022/05/09 02:23:31;;;;;;;9.82;4.28;;;;;;;;;;5025425;28;20060;-61
2022/05/09 02:25:57;;;;;;;7.88;3.90;;;;;;;;;;5024933;28;20079;-61
2022/05/09 02:28:23;;;;;;;11.68;4.60;;;;;;;;;;5022423;28;20026;-62
2022/05/09 02:30:50;;;;;;;8.25;3.97;;;;;;;;;;5024051;28;20044;-60
2022/05/09 02:33:16;;;;;;;8.98;4.20;;;;;;;;;;5024075;28;20018;-61
2022/05/09 02:35:42;;;;;;;10.55;4.32;;;;;;;;;;5025510;28;20404;-61
2022/05/09 02:38:09;;;;;;;7.28;3.95;;;;;;;;;;5020241;28;20021;-61
2022/05/09 02:40:35;;;;;;;9.30;4.32;;;;;;;;;;5020969;28;20025;-61
2022/05/09 02:43:01;;;;;;;11.20;4.05;;;;;;;;;;5015842;28;20468;-61
2022/05/09 02:45:28;;;;;;;8.23;4.25;;;;;;;;;;5020206;28;20033;-60
2022/05/09 02:47:54;;;;;;;10.63;4.50;;;;;;;;;;5022803;28;20041;-60
2022/05/09 02:50:23;;;;;;;11.05;4.35;;;;;;;;;;5019856;28;20029;-61
2022/05/09 02:52:50;;;;;;;12.25;4.43;;;;;;;;;;5023453;28;20040;-60
2022/05/09 02:55:17;;;;;;;10.73;4.15;;;;;;;;;;5025109;28;20231;-61
2022/05/09 02:57:43;;;;;;;9.30;4.20;;;;;;;;;;5023190;28;20100;-61
2022/05/09 03:00:11;;;;;;;10.73;4.25;;;;;;;;;;5024066;28;20021;-61
2022/05/09 03:02:37;;;;;;;11.50;4.78;;;;;;;;;;5012781;28;20033;-61
2022/05/09 03:05:04;;;;;;;11.57;5.28;;;;;;;;;;5016029;28;20026;-61
2022/05/09 03:07:30;;;;;;;11.73;5.05;;;;;;;;;;5017140;28;20022;-61
2022/05/09 03:09:56;;;;;;;8.63;4.30;;;;;;;;;;5023869;28;20038;-61
2022/05/09 03:12:22;;;;;;;11.88;4.57;;;;;;;;;;5022268;28;20021;-61
2022/05/09 03:14:48;;;;;;;9.63;4.35;;;;;;;;;;5024536;28;20017;-60
2022/05/09 03:17:14;;;;;;;9.82;5.03;;;;;;;;;;5022208;28;20112;-62
2022/05/09 03:19:41;;;;;;;11.70;4.85;;;;;;;;;;5023408;28;20026;-61
2022/05/09 03:22:07;;;;;;;9.85;4.63;;;;;;;;;;5020726;28;20473;-61
2022/05/09 03:24:33;;;;;;;12.52;4.57;;;;;;;;;;5020077;28;20025;-61
2022/05/09 03:27:01;;;;;;;11.27;4.90;;;;;;;;;;5021192;28;20041;-61
2022/05/09 03:29:28;;;;;;;10.98;4.70;;;;;;;;;;5023727;28;20489;-61
2022/05/09 03:31:54;;;;;;;8.43;4.72;;;;;;;;;;5024660;28;20065;-61
2022/05/09 03:34:20;;;;;;;10.20;4.63;;;;;;;;;;5028645;28;20095;-61
2022/05/09 03:36:46;;;;;;;14.25;5.38;;;;;;;;;;5027271;28;20116;-61
2022/05/09 03:39:12;;;;;;;11.20;4.60;;;;;;;;;;5025396;28;20469;-61
2022/05/09 03:41:38;;;;;;;10.43;4.65;;;;;;;;;;5024210;28;20029;-61
2022/05/09 03:44:05;;;;;;;10.93;4.47;;;;;;;;;;5027497;28;20097;-62
2022/05/09 03:46:31;;;;;;;10.88;4.80;;;;;;;;;;5027885;28;20104;-60
2022/05/09 03:48:57;;;;;;;9.80;4.50;;;;;;;;;;5029886;28;20107;-61
2022/05/09 03:51:23;;;;;;;8.85;4.40;;;;;;;;;;5028191;28;20349;-61
2022/05/09 03:53:49;;;;;;;10.32;5.05;;;;;;;;;;5027676;28;20035;-61
2022/05/09 03:56:15;;;;;;;12.18;5.13;;;;;;;;;;5029977;28;20022;-61
2022/05/09 03:58:42;;;;;;;9.70;4.38;;;;;;;;;;5025527;28;20603;-61
2022/05/09 04:01:08;;;;;;;10.07;4.85;;;;;;;;;;5026269;28;20485;-61
2022/05/09 04:03:34;;;;;;;11.10;4.72;;;;;;;;;;5022761;28;20017;-61
2022/05/09 04:06:00;;;;;;;11.60;4.85;;;;;;;;;;5027995;28;20072;-61
2022/05/09 04:08:27;;;;;;;16.15;5.43;;;;;;;;;;5024992;28;20029;-61
2022/05/09 04:10:54;;;;;;;11.15;4.75;;;;;;;;;;5027508;28;20033;-61
2022/05/09 04:13:21;;;;;;;12.05;4.63;;;;;;;;;;5026977;28;20051;-60
2022/05/09 04:18:37;;;;;;;8.57;4.47;;;;;;;;;;5025021;28;20095;-61
2022/05/09 04:21:04;;;;;;;13.77;5.25;;;;;;;;;;5021534;28;20021;-61
2022/05/09 04:23:30;;;;;;;16.63;4.97;;;;;;;;;;5027700;28;20033;-61
2022/05/09 04:25:56;;;;;;;14.82;5.22;;;;;;;;;;5026725;28;20064;-60
2022/05/09 04:28:22;;;;;;;10.10;4.80;;;;;;;;;;5026880;28;20079;-61
2022/05/09 04:30:49;;;;;;;9.35;5.00;;;;;;;;;;5026452;28;20087;-61
2022/05/09 04:33:15;;;;;;;9.48;4.88;;;;;;;;;;5025874;28;20048;-61
2022/05/09 04:35:42;;;;;;;10.80;5.05;;;;;;;;;;5026474;28;20037;-61
2022/05/09 04:38:13;;;;;;;11.60;4.65;;;;;;;;;;5026867;28;20354;-61
2022/05/09 04:40:39;;;;;;;9.93;4.60;;;;;;;;;;5025293;28;20148;-61
2022/05/09 04:43:06;;;;;;;10.18;4.80;;;;;;;;;;5025188;28;20029;-61
2022/05/09 04:45:32;;;;;;;8.15;5.03;;;;;;;;;;5025185;28;20108;-61
2022/05/09 04:47:58;;;;;;;11.63;5.15;;;;;;;;;;5021915;28;20608;-61
2022/05/09 04:50:25;;;;;;;11.60;5.43;;;;;;;;;;5023377;28;20219;-61
2022/05/09 04:52:51;;;;;;;14.38;5.43;;;;;;;;;;5023157;28;20067;-61
2022/05/09 04:55:17;;;;;;;12.38;5.40;;;;;;;;;;5025518;28;20041;-61
2022/05/09 04:57:44;;;;;;;11.95;5.22;;;;;;;;;;5022249;28;20029;-63
2022/05/09 05:00:11;;;;;;;10.63;5.32;;;;;;;;;;5026500;28;20381;-63
2022/05/09 05:02:37;;;;;;;10.18;4.95;;;;;;;;;;5018742;28;20409;-63
2022/05/09 05:05:07;;;;;;;14.35;5.60;;;;;;;;;;5023262;28;20018;-63
2022/05/09 05:07:33;;;;;;;16.15;5.28;;;;;;;;;;5022755;28;20030;-63
2022/05/09 05:09:59;;;;;;;13.70;5.10;;;;;;;;;;5023302;28;20080;-63
2022/05/09 05:12:25;;;;;;;11.70;5.60;;;;;;;;;;5022780;28;20164;-63
2022/05/09 05:14:51;;;;;;;18.45;5.03;;;;;;;;;;5023370;28;20310;-62
2022/05/09 05:17:17;;;;;;;12.55;5.20;;;;;;;;;;5022190;28;20033;-63
2022/05/09 05:19:44;;;;;;;11.48;5.13;;;;;;;;;;5026453;28;20517;-63
2022/05/09 05:22:12;;;;;;;15.55;5.00;;;;;;;;;;5018218;28;20025;-63
2022/05/09 05:24:41;;;;;;;10.23;4.65;;;;;;;;;;5025522;28;20030;-61
2022/05/09 05:27:07;;;;;;;29.23;17.73;;;;;;;;;;5024649;28;20032;-62
2022/05/09 05:29:33;;;;;;;14.68;7.35;;;;;;;;;;5023798;28;20025;-63
2022/05/09 05:31:59;;;;;;;11.27;5.13;;;;;;;;;;5023938;28;20072;-63
2022/05/09 05:34:25;;;;;;;14.50;4.90;;;;;;;;;;5022059;28;20036;-63
2022/05/09 05:36:51;;;;;;;14.88;5.22;;;;;;;;;;5019804;28;20033;-63
2022/05/09 05:39:17;;;;;;;14.20;5.30;;;;;;;;;;5025057;28;20044;-63
2022/05/09 05:41:44;;;;;;;12.93;5.47;;;;;;;;;;5025027;28;20025;-63
2022/05/09 05:44:11;;;;;;;9.50;5.25;;;;;;;;;;5025639;28;20040;-63
2022/05/09 05:46:41;;;;;;;14.40;5.82;;;;;;;;;;5026186;28;20017;-63
2022/05/09 05:49:08;;;;;;;12.77;5.15;;;;;;;;;;5024312;28;21077;-63
2022/05/09 05:51:34;;;;;;;10.50;5.30;;;;;;;;;;5026279;28;20021;-63
2022/05/09 05:54:00;;;;;;;13.48;6.05;;;;;;;;;;5025585;28;20029;-63
2022/05/09 05:56:26;;;;;;;13.57;5.90;;;;;;;;;;5022090;28;21616;-63
2022/05/09 05:58:52;;;;;;;12.65;6.28;;;;;;;;;;5024124;28;20107;-63
2022/05/09 06:01:18;;;;;;;15.85;6.45;;;;;;;;;;5024432;28;20120;-63
2022/05/09 06:03:44;;;;;;;16.88;6.93;;;;;;;;;;5020079;28;20017;-63
2022/05/09 06:06:13;;;;;;;13.55;6.70;;;;;;;;;;5024306;28;20042;-63
2022/05/09 06:08:40;;;;;;;15.85;6.70;;;;;;;;;;5026607;28;20022;-63
2022/05/09 06:11:06;;;;;;;20.30;6.78;;;;;;;;;;5019236;28;20029;-63
2022/05/09 06:13:32;;;;;;;18.05;7.13;;;;;;;;;;5022552;28;20026;-63
2022/05/09 06:15:58;;;;;;;14.45;6.32;;;;;;;;;;5023320;28;20088;-63
2022/05/09 06:18:24;;;;;;;23.98;7.68;;;;;;;;;;5023334;28;20057;-63
2022/05/09 06:20:51;;;;;;;20.00;8.00;;;;;;;;;;5024489;28;20025;-63
2022/05/09 06:23:17;;;;;;;20.73;7.88;;;;;;;;;;5019435;28;20422;-63
2022/05/09 06:25:46;;;;;;;18.80;8.32;;;;;;;;;;5013594;28;20489;-63
2022/05/09 06:28:12;;;;;;;18.90;8.43;;;;;;;;;;5020655;28;20029;-63
2022/05/09 06:30:39;;;;;;;19.42;8.65;;;;;;;;;;5022045;28;20029;-63
2022/05/09 06:33:05;;;;;;;21.25;8.38;;;;;;;;;;5020755;28;20048;-63
2022/05/09 06:35:31;;;;;;;22.65;9.20;;;;;;;;;;5035325;28;20057;-63
2022/05/09 06:38:01;;;;;;;24.17;7.97;;;;;;;;;;5022677;28;20033;-63
2022/05/09 06:40:29;;;;;;;22.75;8.52;;;;;;;;;;5017624;28;20022;-63
2022/05/09 06:42:56;;;;;;;18.40;8.10;;;;;;;;;;5022376;28;20382;-63
2022/05/09 06:45:23;;;;;;;19.60;8.30;;;;;;;;;;5021644;28;20026;-63
2022/05/09 06:47:51;;;;;;;21.42;7.75;;;;;;;;;;5022679;28;20171;-63
2022/05/09 06:50:18;;;;;;;27.27;8.93;;;;;;;;;;5023276;28;20025;-63
2022/05/09 06:52:44;;;;;;;19.17;7.43;;;;;;;;;;5024049;28;20044;-63
2022/05/09 06:55:11;;;;;;;16.75;7.38;;;;;;;;;;5023761;28;20282;-63
2022/05/09 06:57:41;;;;;;;15.52;6.53;;;;;;;;;;5022014;28;20028;-63
2022/05/09 07:00:08;;;;;;;10.95;5.30;;;;;;;;;;5021297;28;20029;-63
2022/05/09 07:02:34;;;;;;;13.38;5.40;;;;;;;;;;5016870;28;20037;-63
2022/05/09 07:05:03;;;;;;;14.50;5.30;;;;;;;;;;5023153;28;20041;-64
2022/05/09 07:07:29;;;;;;;13.77;5.15;;;;;;;;;;5022894;28;20033;-63
2022/05/09 07:09:55;;;;;;;14.68;5.80;;;;;;;;;;5019429;28;20038;-64
2022/05/09 07:12:21;;;;;;;14.25;4.70;;;;;;;;;;5020435;28;20044;-63
2022/05/09 07:14:47;;;;;;;12.95;4.97;;;;;;;;;;5019147;28;20453;-63
2022/05/09 07:17:13;;;;;;;15.82;5.70;;;;;;;;;;5020165;28;20480;-63
2022/05/09 07:19:39;;;;;;;17.08;5.03;;;;;;;;;;5022873;28;20044;-63
2022/05/09 07:22:05;;;;;;;16.95;5.57;;;;;;;;;;5022681;28;20022;-63
2022/05/09 07:24:30;;;;;;;14.93;4.70;;;;;;;;;;5022468;28;20455;-63
2022/05/09 07:26:56;;;;;;;10.35;4.78;;;;;;;;;;5023778;28;20132;-63
2022/05/09 07:29:22;;;;;;;9.02;4.00;;;;;;;;;;5023171;28;20080;-64
2022/05/09 07:31:49;;;;;;;10.27;3.65;;;;;;;;;;5021895;28;20051;-64
2022/05/09 07:34:15;;;;;;;9.50;3.28;;;;;;;;;;5023033;28;20526;-64
2022/05/09 07:36:42;;;;;;;7.50;3.10;;;;;;;;;;5023551;28;20057;-64
2022/05/09 07:39:08;;;;;;;6.28;3.22;;;;;;;;;;5020751;28;20392;-64
2022/05/09 07:41:34;;;;;;;11.55;3.30;;;;;;;;;;5021705;28;20555;-64
2022/05/09 07:44:00;;;;;;;8.60;3.80;;;;;;;;;;5018488;28;20087;-64
2022/05/09 07:46:26;;;;;;;12.25;3.90;;;;;;;;;;5021946;28;20040;-64
2022/05/09 07:48:53;;;;;;;9.68;4.05;;;;;;;;;;5023182;28;20694;-64
2022/05/09 07:51:19;;;;;;;10.20;3.78;;;;;;;;;;5021739;28;20029;-64
2022/05/09 07:53:45;;;;;;;8.93;4.53;;;;;;;;;;5021799;28;20037;-64
2022/05/09 07:56:12;;;;;;;12.10;6.78;;;;;;;;;;5022136;28;20705;-63
2022/05/09 07:58:38;;;;;;;12.68;4.85;;;;;;;;;;5018747;28;20028;-64
2022/05/09 08:01:05;;;;;;;8.43;3.90;;;;;;;;;;5021744;28;20029;-64
2022/05/09 08:03:33;;;;;;;6.38;3.63;;;;;;;;;;5023007;28;20440;-64
2022/05/09 08:06:00;;;;;;;10.32;3.83;;;;;;;;;;5020592;28;20576;-65
2022/05/09 08:08:28;;;;;;;8.10;4.28;;;;;;;;;;5018656;28;20619;-64
2022/05/09 08:10:55;;;;;;;14.88;3.97;;;;;;;;;;5021616;28;20481;-63
2022/05/09 08:13:22;;;;;;;9.85;3.92;;;;;;;;;;5018088;28;20103;-63
2022/05/09 08:15:49;;;;;;;8.25;4.40;;;;;;;;;;5023948;28;20563;-63
2022/05/09 08:18:15;;;;;;;15.02;3.90;;;;;;;;;;5021501;28;20389;-64
2022/05/09 08:20:45;;;;;;;8.63;4.35;;;;;;;;;;5021817;28;20092;-64
2022/05/09 08:23:13;;;;;;;8.80;4.22;;;;;;;;;;5025295;28;20101;-64
2022/05/09 08:25:41;;;;;;;9.60;3.83;;;;;;;;;;5019168;28;20473;-64
2022/05/09 08:28:08;;;;;;;9.18;4.00;;;;;;;;;;5026080;28;20435;-64
2022/05/09 08:30:34;;;;;;;7.72;3.45;;;;;;;;;;5025307;28;20422;-64
2022/05/09 08:33:06;;;;;;;11.38;3.83;;;;;;;;;;5025399;28;20027;-64
2022/05/09 08:35:32;;;;;;;9.32;3.83;;;;;;;;;;5024886;28;20045;-64
2022/05/09 08:37:58;;;;;;;8.27;3.35;;;;;;;;;;5025842;28;20398;-64
2022/05/09 08:40:28;;;;;;;9.48;3.13;;;;;;;;;;5022271;28;20049;-65
2022/05/09 08:43:00;;;;;;;11.32;3.03;;;;;;;;;;5020459;28;20313;-65
2022/05/09 08:45:26;;;;;;;10.15;3.40;;;;;;;;;;5025890;28;22062;-65
2022/05/09 08:48:11;;;;;;;13.90;3.25;;;;;;;;;;5018314;28;20044;-65
2022/05/09 08:50:50;;;;;;;10.50;3.10;;;;;;;;;;5019446;28;20102;-65
2022/05/09 08:53:22;;;;;;;9.15;3.35;;;;;;;;;;5025771;28;20493;-67
2022/05/09 08:55:49;;;;;;;8.55;3.05;;;;;;;;;;5025755;28;20034;-65
2022/05/09 08:58:19;;;;;;;6.85;3.00;;;;;;;;;;5021536;28;20030;-64
2022/05/09 09:00:45;;;;;;;7.47;3.20;;;;;;;;;;5027009;28;20030;-64
2022/05/09 09:03:30;;;;;;;7.68;3.28;;;;;;;;;;5025065;28;20017;-64
2022/05/09 09:06:00;;;;;;;11.40;3.60;;;;;;;;;;5024838;28;20477;-64
2022/05/09 09:08:53;;;;;;;10.30;3.63;;;;;;;;;;5018926;28;20109;-65
2022/05/09 09:11:32;;;;;;;7.50;3.78;;;;;;;;;;5024256;28;20384;-65
2022/05/09 09:14:01;;;;;;;8.98;3.75;;;;;;;;;;5019570;28;20380;-65
2022/05/09 09:16:30;;;;;;;8.50;3.83;;;;;;;;;;5021145;28;20108;-64
2022/05/09 09:19:29;;;;;;;13.25;3.95;;;;;;;;;;5018945;28;20645;-65
2022/05/09 09:22:01;;;;;;;8.98;3.72;;;;;;;;;;5023324;28;20060;-65
2022/05/09 09:24:45;;;;;;;9.82;4.43;;;;;;;;;;5017080;28;20025;-65
2022/05/09 09:27:14;;;;;;;13.60;4.70;;;;;;;;;;5019193;28;20481;-65
2022/05/09 09:29:44;;;;;;;9.40;4.75;;;;;;;;;;5021767;28;20393;-65
2022/05/09 09:32:12;;;;;;;9.70;4.60;;;;;;;;;;5017481;28;20102;-65
2022/05/09 09:34:44;;;;;;;7.18;3.88;;;;;;;;;;5023236;28;20377;-66
2022/05/09 09:37:28;;;;;;;9.40;3.83;;;;;;;;;;5025071;28;20531;-65
2022/05/09 09:39:55;;;;;;;11.13;4.15;;;;;;;;;;5023439;28;20087;-65
2022/05/09 09:42:21;;;;;;;12.85;5.32;;;;;;;;;;5022955;28;20358;-65
2022/05/09 09:44:48;;;;;;;8.25;4.53;;;;;;;;;;5025022;28;20030;-65
2022/05/09 09:47:20;;;;;;;12.02;4.78;;;;;;;;;;5024635;28;20029;-65
2022/05/09 09:49:48;;;;;;;10.35;4.90;;;;;;;;;;5023007;28;20103;-65
2022/05/09 09:52:29;;;;;;;9.38;4.75;;;;;;;;;;5020793;28;20476;-65
2022/05/09 09:55:02;;;;;;;11.15;5.40;;;;;;;;;;5012272;28;20026;-65
2022/05/09 09:57:29;;;;;;;11.00;5.20;;;;;;;;;;5021257;28;20025;-65
2022/05/09 09:59:57;;;;;;;13.98;4.70;;;;;;;;;;5022663;28;20017;-65
2022/05/09 10:02:25;;;;;;;11.68;5.72;;;;;;;;;;5022419;28;20026;-66
2022/05/09 10:04:54;;;;;;;13.45;5.10;;;;;;;;;;5019846;28;20025;-65
2022/05/09 10:07:28;;;;;;;17.63;6.40;;;;;;;;;;5021779;28;20696;-66
2022/05/09 10:10:12;;;;;;;10.18;5.65;;;;;;;;;;5018484;28;20030;-65
2022/05/09 10:12:39;;;;;;;14.45;5.85;;;;;;;;;;5014110;28;20113;-65
2022/05/09 10:15:21;;;;;;;10.95;5.82;;;;;;;;;;5020792;28;20476;-65
2022/05/09 10:17:46;;;;;;;13.32;5.80;;;;;;;;;;5021949;28;20184;-66
2022/05/09 10:20:32;;;;;;;12.93;5.57;;;;;;;;;;5022871;28;20449;-65
2022/05/09 10:25:59;;;;;;;10.98;5.65;;;;;;;;;;5019124;28;20156;-66
2022/05/09 10:28:26;;;;;;;9.90;5.55;;;;;;;;;;5017766;28;20116;-66
2022/05/09 10:30:58;;;;;;;9.70;5.70;;;;;;;;;;5019414;28;20017;-65
2022/05/09 10:33:31;;;;;;;10.07;6.40;;;;;;;;;;5022160;28;20033;-66
2022/05/09 10:35:59;;;;;;;12.38;6.10;;;;;;;;;;5016724;28;20867;-65
2022/05/09 10:38:34;;;;;;;9.52;6.00;;;;;;;;;;5023892;28;20021;-66
2022/05/09 10:41:05;;;;;;;9.52;6.68;;;;;;;;;;5016591;28;20477;-67
2022/05/09 10:43:51;;;;;;;10.15;6.50;;;;;;;;;;5018183;28;20088;-69
2022/05/09 10:46:18;;;;;;;11.70;5.95;;;;;;;;;;5013636;28;20156;-67
2022/05/09 10:49:05;;;;;;;10.15;6.60;;;;;;;;;;5022025;28;20033;-66
2022/05/09 10:51:35;;;;;;;8.70;5.28;;;;;;;;;;5023478;28;20029;-66
2022/05/09 10:54:25;;;;;;;11.65;6.30;;;;;;;;;;5021927;28;20079;-66
2022/05/09 10:57:06;;;;;;;17.63;6.30;;;;;;;;;;5020260;28;20036;-66
2022/05/09 10:59:33;;;;;;;15.25;6.43;;;;;;;;;;5020977;28;20043;-66
2022/05/09 11:02:02;;;;;;;9.70;5.40;;;;;;;;;;5015813;28;20024;-66
2022/05/09 11:04:32;;;;;;;13.43;7.05;;;;;;;;;;5022636;28;20036;-65
2022/05/09 11:07:01;;;;;;;10.95;6.50;;;;;;;;;;5019041;28;20025;-66
2022/05/09 11:09:50;;;;;;;10.32;6.15;;;;;;;;;;5017575;28;20076;-67
2022/05/09 11:12:31;;;;;;;10.82;5.47;;;;;;;;;;5021738;28;20072;-65
2022/05/09 11:15:23;;;;;;;10.02;5.60;;;;;;;;;;5019661;28;20041;-67
2022/05/09 11:18:00;;;;;;;11.27;5.80;;;;;;;;;;5010456;28;20120;-67
2022/05/09 11:20:47;;;;;;;12.15;5.68;;;;;;;;;;5017067;28;20104;-65
2022/05/09 11:23:21;;;;;;;8.93;4.88;;;;;;;;;;5018121;28;20025;-66
2022/05/09 11:25:53;;;;;;;7.05;5.22;;;;;;;;;;5020319;28;20013;-67
2022/05/09 11:28:19;;;;;;;7.57;4.72;;;;;;;;;;5033874;28;20029;-67
2022/05/09 11:30:47;;;;;;;6.90;4.13;;;;;;;;;;5019736;28;20366;-66
2022/05/09 11:33:22;;;;;;;10.50;4.80;;;;;;;;;;5018287;28;20033;-65
2022/05/09 11:35:53;;;;;;;9.57;4.65;;;;;;;;;;5018741;28;20039;-67
2022/05/09 11:38:38;;;;;;;9.80;5.40;;;;;;;;;;5018210;28;20025;-67
2022/05/09 11:41:08;;;;;;;11.02;5.53;;;;;;;;;;5017147;28;20038;-68
2022/05/09 11:43:37;;;;;;;7.70;4.80;;;;;;;;;;5021610;28;20673;-67
2022/05/09 11:46:09;;;;;;;10.02;4.95;;;;;;;;;;5018112;28;20033;-67
2022/05/09 11:48:54;;;;;;;8.35;5.43;;;;;;;;;;5022761;28;20029;-66
2022/05/09 11:51:46;;;;;;;12.52;4.95;;;;;;;;;;5017239;28;20025;-68
2022/05/09 11:54:14;;;;;;;8.82;4.97;;;;;;;;;;5021411;28;20033;-68
2022/05/09 11:56:44;;;;;;;8.73;4.85;;;;;;;;;;5023036;28;20037;-68
2022/05/09 11:59:15;;;;;;;12.70;4.28;;;;;;;;;;5019810;28;20022;-68
2022/05/09 12:02:00;;;;;;;5.55;3.88;;;;;;;;;;5021466;28;20033;-67
2022/05/09 12:04:41;;;;;;;7.45;4.30;;;;;;;;;;5018764;28;20343;-65
2022/05/09 12:07:26;;;;;;;8.50;4.38;;;;;;;;;;5021710;28;20380;-65
2022/05/09 12:10:02;;;;;;;9.00;4.90;;;;;;;;;;5021507;28;20068;-68
2022/05/09 12:12:37;;;;;;;10.48;5.50;;;;;;;;;;5020668;28;20029;-68
2022/05/09 12:15:04;;;;;;;8.10;4.60;;;;;;;;;;5024901;28;20107;-65
2022/05/09 12:17:40;;;;;;;5.68;4.30;;;;;;;;;;5022915;28;20056;-68
2022/05/09 12:20:09;;;;;;;9.40;4.28;;;;;;;;;;5023354;28;20029;-67
2022/05/09 12:22:40;;;;;;;6.78;4.00;;;;;;;;;;5024033;28;20088;-68
2022/05/09 12:25:11;;;;;;;6.82;4.75;;;;;;;;;;5025296;28;20415;-65
2022/05/09 12:27:40;;;;;;;9.50;4.50;;;;;;;;;;5018447;28;20029;-68
2022/05/09 12:30:36;;;;;;;6.15;4.13;;;;;;;;;;5023312;28;20721;-68
2022/05/09 12:33:09;;;;;;;6.78;4.28;;;;;;;;;;5017081;28;20042;-68
2022/05/09 12:35:35;;;;;;;10.10;4.93;;;;;;;;;;5024913;28;20033;-67
2022/05/09 12:38:01;;;;;;;6.47;4.85;;;;;;;;;;5022810;28;20034;-66
2022/05/09 12:40:27;;;;;;;7.80;3.88;;;;;;;;;;5016864;28;20024;-67
2022/05/09 12:42:56;;;;;;;5.13;3.75;;;;;;;;;;5019156;28;20028;-68
2022/05/09 12:45:22;;;;;;;7.05;4.20;;;;;;;;;;5019589;28;20105;-67
2022/05/09 12:47:49;;;;;;;5.47;3.83;;;;;;;;;;5021854;28;20029;-68
2022/05/09 12:50:18;;;;;;;7.40;3.90;;;;;;;;;;5020989;28;20108;-68
2022/05/09 12:52:50;;;;;;;9.73;3.75;;;;;;;;;;5026102;28;20079;-68
2022/05/09 12:58:01;;;;;;;11.02;7.80;;;;;;;;;;5018910;28;20044;-68
2022/05/09 13:00:29;;;;;;;7.88;3.53;;;;;;;;;;5024954;28;20025;-68
2022/05/09 13:02:55;;;;;;;6.72;3.35;;;;;;;;;;5021109;28;20392;-66
2022/05/09 13:05:35;;;;;;;8.20;4.03;;;;;;;;;;5023836;28;20036;-67
2022/05/09 13:08:02;;;;;;;4.22;3.22;;;;;;;;;;5022291;28;20092;-68
2022/05/09 13:10:29;;;;;;;6.28;4.30;;;;;;;;;;5017953;28;20056;-68
2022/05/09 13:12:57;;;;;;;7.72;4.05;;;;;;;;;;5023245;28;20021;-66
2022/05/09 13:15:23;;;;;;;5.68;4.13;;;;;;;;;;5020585;28;20029;-67
2022/05/09 13:17:58;;;;;;;7.05;4.00;;;;;;;;;;5024419;28;20536;-68
2022/05/09 13:20:25;;;;;;;7.10;3.95;;;;;;;;;;5021686;28;20628;-68
2022/05/09 13:22:54;;;;;;;6.03;4.30;;;;;;;;;;5025547;28;20037;-67
2022/05/09 13:25:30;;;;;;;10.52;4.50;;;;;;;;;;5024105;28;20084;-67
2022/05/09 13:27:57;;;;;;;8.57;3.85;;;;;;;;;;5022377;28;20127;-67
2022/05/09 13:30:24;;;;;;;7.78;4.05;;;;;;;;;;5020009;28;20026;-67
2022/05/09 13:32:54;;;;;;;7.72;4.35;;;;;;;;;;5024089;28;20029;-67
2022/05/09 13:35:28;;;;;;;6.65;4.07;;;;;;;;;;5021082;28;20018;-67
2022/05/09 13:37:54;;;;;;;8.15;5.22;;;;;;;;;;5022294;28;20053;-67
2022/05/09 13:40:22;;;;;;;6.68;4.40;;;;;;;;;;5020985;28;20083;-67
2022/05/09 13:42:50;;;;;;;7.32;4.32;;;;;;;;;;5026663;28;20017;-65
2022/05/09 13:45:18;;;;;;;7.75;4.40;;;;;;;;;;5028810;28;20029;-67
2022/05/09 13:47:46;;;;;;;6.78;4.15;;;;;;;;;;5026671;28;20060;-66
2022/05/09 13:50:13;;;;;;;8.50;4.63;;;;;;;;;;5020300;28;20037;-66
2022/05/09 13:52:40;;;;;;;8.63;4.80;;;;;;;;;;5026564;28;20030;-67
2022/05/09 13:55:08;;;;;;;6.65;4.65;;;;;;;;;;5027595;28;20023;-65
2022/05/09 13:57:35;;;;;;;13.38;5.53;;;;;;;;;;5025831;28;20091;-65
2022/05/09 14:00:07;;;;;;;6.82;4.43;;;;;;;;;;5025030;28;20026;-65
2022/05/09 14:02:34;;;;;;;6.45;4.55;;;;;;;;;;5014779;28;20701;-66
2022/05/09 14:05:05;;;;;;;8.30;5.15;;;;;;;;;;5018172;28;20037;-66
2022/05/09 14:07:38;;;;;;;7.60;5.00;;;;;;;;;;5024999;28;20718;-65
2022/05/09 14:10:21;;;;;;;6.70;4.88;;;;;;;;;;5022629;28;20025;-65
2022/05/09 14:12:47;;;;;;;7.38;4.95;;;;;;;;;;5019141;28;20048;-65
2022/05/09 14:15:18;;;;;;;6.47;4.22;;;;;;;;;;5024604;28;20021;-65
2022/05/09 14:17:47;;;;;;;7.18;4.22;;;;;;;;;;5022186;28;20048;-68
2022/05/09 14:20:23;;;;;;;8.10;4.60;;;;;;;;;;5021123;28;20013;-65
2022/05/09 14:22:49;;;;;;;9.57;4.65;;;;;;;;;;5028055;28;20017;-65
2022/05/09 14:30:46;;;;;;;8.88;4.88;;;;;;;;;;5023478;28;20040;-65
2022/05/09 14:33:31;;;;;;;8.80;5.13;;;;;;;;;;5023565;28;20026;-64
2022/05/09 14:35:57;;;;;;;8.43;4.68;;;;;;;;;;5016514;28;20033;-65
2022/05/09 14:38:25;;;;;;;8.82;4.97;;;;;;;;;;5021051;28;20021;-65
2022/05/09 14:40:51;;;;;;;10.10;5.00;;;;;;;;;;5017915;28;20034;-65
2022/05/09 14:43:28;;;;;;;9.30;4.07;;;;;;;;;;5013174;28;20346;-66
2022/05/09 14:46:05;;;;;;;15.38;4.65;;;;;;;;;;5024214;28;20143;-65
2022/05/09 14:48:34;;;;;;;9.52;4.90;;;;;;;;;;5020275;28;20389;-66
2022/05/09 14:51:02;;;;;;;8.70;4.43;;;;;;;;;;5014272;28;20060;-66
2022/05/09 14:53:30;;;;;;;8.98;4.75;;;;;;;;;;5022435;28;20380;-66
2022/05/09 14:59:13;;;;;;;10.25;4.90;;;;;;;;;;5020470;28;20037;-65
2022/05/09 15:01:53;;;;;;;8.98;4.40;;;;;;;;;;5017847;28;20481;-66
2022/05/09 15:04:20;;;;;;;10.20;4.88;;;;;;;;;;5018036;28;20045;-66
2022/05/09 15:06:47;;;;;;;8.82;4.40;;;;;;;;;;5020687;28;20155;-65